Time,TemperatureF,DewpointF,PressureIn,WindDirection,WindDirectionDegrees,WindSpeedMPH,WindSpeedGustMPH,Humidity,HourlyPrecipIn,Conditions,Clouds,dailyrainin,SoftwareType,DateUTC
2013-12-26 00:02:00,50.6,39.6,29.77,North,0,0.0,0.0,66,0.00,,,0.00,WUHU216HW,2013-12-26 06:02:00,
2013-12-26 00:08:00,50.4,38.6,29.78,North,0,0.0,0.0,64,0.00,,,0.00,WUHU216HW,2013-12-26 06:08:00,
2013-12-26 00:13:00,50.4,38.6,29.78,North,0,0.0,0.0,64,0.00,,,0.00,WUHU216HW,2013-12-26 06:13:00,
2013-12-26 00:18:00,50.2,38.4,29.78,North,0,0.0,0.0,64,0.00,,,0.00,WUHU216HW,2013-12-26 06:18:00,
2013-12-26 00:23:00,50.2,38.4,29.78,North,0,0.0,0.0,64,0.00,,,0.00,WUHU216HW,2013-12-26 06:23:00,
2013-12-26 00:28:00,50.0,38.7,29.78,North,0,0.0,0.0,65,0.00,,,0.00,WUHU216HW,2013-12-26 06:28:00,
2013-12-26 00:33:00,50.0,39.1,29.78,North,0,0.0,0.0,66,0.00,,,0.00,WUHU216HW,2013-12-26 06:33:00,
2013-12-26 00:38:00,50.0,39.5,29.77,North,0,0.0,0.0,67,0.00,,,0.00,WUHU216HW,2013-12-26 06:38:00,
2013-12-26 00:43:00,49.9,39.7,29.77,North,0,0.0,0.0,68,0.00,,,0.00,WUHU216HW,2013-12-26 06:43:00,
2013-12-26 00:48:00,49.7,39.5,29.77,North,0,0.0,0.0,68,0.00,,,0.00,WUHU216HW,2013-12-26 06:48:00,
2013-12-26 00:53:00,49.5,39.3,29.77,North,0,0.0,0.0,68,0.00,,,0.00,WUHU216HW,2013-12-26 06:53:00,
2013-12-26 00:58:00,49.3,38.8,29.77,North,0,0.0,0.0,67,0.00,,,0.00,WUHU216HW,2013-12-26 06:58:00,
2013-12-26 01:03:00,49.1,38.6,29.77,North,0,0.0,0.0,67,0.00,,,0.00,WUHU216HW,2013-12-26 07:03:00,
2013-12-26 01:08:00,49.0,38.8,29.76,North,0,0.0,0.0,68,0.00,,,0.00,WUHU216HW,2013-12-26 07:08:00,
2013-12-26 01:13:00,48.6,38.5,29.76,North,0,0.0,0.0,68,0.00,,,0.00,WUHU216HW,2013-12-26 07:13:00,
2013-12-26 01:18:00,48.4,38.7,29.76,North,0,0.0,0.0,69,0.00,,,0.00,WUHU216HW,2013-12-26 07:18:00,
2013-12-26 01:23:00,48.2,38.5,29.76,North,0,0.0,0.0,69,0.00,,,0.00,WUHU216HW,2013-12-26 07:23:00,
2013-12-26 01:28:00,48.1,38.4,29.76,North,0,0.0,0.0,69,0.00,,,0.00,WUHU216HW,2013-12-26 07:28:00,
2013-12-26 01:33:00,47.9,38.5,29.75,North,0,0.0,0.0,70,0.00,,,0.00,WUHU216HW,2013-12-26 07:33:00,
2013-12-26 01:39:00,47.7,38.4,29.76,North,0,0.0,0.0,70,0.00,,,0.00,WUHU216HW,2013-12-26 07:39:00,
2013-12-26 01:44:00,47.5,38.3,29.76,North,0,0.0,0.0,70,0.00,,,0.00,WUHU216HW,2013-12-26 07:44:00,
2013-12-26 01:49:00,47.3,38.1,29.76,North,0,0.0,0.0,70,0.00,,,0.00,WUHU216HW,2013-12-26 07:49:00,
2013-12-26 01:54:00,47.2,37.9,29.76,North,0,0.0,0.0,70,0.00,,,0.00,WUHU216HW,2013-12-26 07:54:00,
2013-12-26 01:59:00,47.2,38.3,29.76,North,0,0.0,0.0,71,0.00,,,0.00,WUHU216HW,2013-12-26 07:59:00,
2013-12-26 02:04:00,47.0,38.1,29.76,North,0,0.0,0.0,71,0.00,,,0.00,WUHU216HW,2013-12-26 08:04:00,
2013-12-26 02:09:00,46.8,37.9,29.76,North,0,0.0,0.0,71,0.00,,,0.00,WUHU216HW,2013-12-26 08:09:00,
2013-12-26 02:14:00,46.6,38.1,29.76,North,0,0.0,0.0,72,0.00,,,0.00,WUHU216HW,2013-12-26 08:14:00,
2013-12-26 02:19:00,46.4,38.0,29.76,North,0,0.0,0.0,72,0.00,,,0.00,WUHU216HW,2013-12-26 08:19:00,
2013-12-26 02:24:00,46.3,37.8,29.76,North,0,0.0,0.0,72,0.00,,,0.00,WUHU216HW,2013-12-26 08:24:00,
2013-12-26 02:29:00,46.1,37.6,29.76,North,0,0.0,0.0,72,0.00,,,0.00,WUHU216HW,2013-12-26 08:29:00,
2013-12-26 02:34:00,45.9,37.5,29.76,North,0,0.0,0.0,72,0.00,,,0.00,WUHU216HW,2013-12-26 08:34:00,
2013-12-26 02:39:00,45.9,37.5,29.76,North,0,0.0,0.0,72,0.00,,,0.00,WUHU216HW,2013-12-26 08:39:00,
2013-12-26 02:44:00,45.7,37.3,29.76,North,0,0.0,0.0,72,0.00,,,0.00,WUHU216HW,2013-12-26 08:44:00,
2013-12-26 02:49:00,45.7,37.5,29.76,North,0,0.0,0.0,73,0.00,,,0.00,WUHU216HW,2013-12-26 08:49:00,
2013-12-26 02:54:00,45.5,37.4,29.76,North,0,0.0,0.0,73,0.00,,,0.00,WUHU216HW,2013-12-26 08:54:00,
2013-12-26 02:59:00,45.7,37.3,29.76,North,0,0.0,0.0,72,0.00,,,0.00,WUHU216HW,2013-12-26 08:59:00,
2013-12-26 03:05:00,45.7,37.3,29.76,North,0,0.0,0.0,72,0.00,,,0.00,WUHU216HW,2013-12-26 09:05:00,
2013-12-26 03:10:00,45.7,37.3,29.76,North,0,0.0,0.0,72,0.00,,,0.00,WUHU216HW,2013-12-26 09:10:00,
2013-12-26 03:15:00,45.7,37.3,29.76,North,0,0.0,0.0,72,0.00,,,0.00,WUHU216HW,2013-12-26 09:15:00,
2013-12-26 03:20:00,45.7,37.3,29.76,North,0,0.0,0.0,72,0.00,,,0.00,WUHU216HW,2013-12-26 09:20:00,
2013-12-26 03:25:00,45.7,37.5,29.76,North,0,0.0,0.0,73,0.00,,,0.00,WUHU216HW,2013-12-26 09:25:00,
2013-12-26 03:30:00,45.7,37.5,29.76,North,0,0.0,0.0,73,0.00,,,0.00,WUHU216HW,2013-12-26 09:30:00,
2013-12-26 03:35:00,45.7,37.5,29.76,North,0,0.0,0.0,73,0.00,,,0.00,WUHU216HW,2013-12-26 09:35:00,
2013-12-26 03:40:00,45.7,37.5,29.76,North,0,0.0,0.0,73,0.00,,,0.00,WUHU216HW,2013-12-26 09:40:00,
2013-12-26 03:45:00,45.5,37.1,29.76,North,0,0.0,0.0,72,0.00,,,0.00,WUHU216HW,2013-12-26 09:45:00,
2013-12-26 03:50:00,45.5,37.4,29.76,North,0,0.0,0.0,73,0.00,,,0.00,WUHU216HW,2013-12-26 09:50:00,
2013-12-26 03:55:00,45.4,37.2,29.76,North,0,0.0,0.0,73,0.00,,,0.00,WUHU216HW,2013-12-26 09:55:00,
2013-12-26 04:00:00,45.4,37.2,29.76,North,0,0.0,0.0,73,0.00,,,0.00,WUHU216HW,2013-12-26 10:00:00,
2013-12-26 04:05:00,45.2,37.4,29.76,North,0,0.0,0.0,74,0.00,,,0.00,WUHU216HW,2013-12-26 10:05:00,
2013-12-26 04:10:00,45.2,37.4,29.76,North,0,0.0,0.0,74,0.00,,,0.00,WUHU216HW,2013-12-26 10:10:00,
2013-12-26 04:15:00,45.0,37.2,29.76,North,0,0.0,0.0,74,0.00,,,0.00,WUHU216HW,2013-12-26 10:15:00,
2013-12-26 04:20:00,44.8,36.6,29.76,North,0,0.0,0.0,73,0.00,,,0.00,WUHU216HW,2013-12-26 10:20:00,
2013-12-26 04:25:00,44.8,36.6,29.75,North,0,0.0,0.0,73,0.00,,,0.00,WUHU216HW,2013-12-26 10:25:00,
2013-12-26 04:30:00,44.6,36.2,29.75,North,0,0.0,0.0,72,0.00,,,0.00,WUHU216HW,2013-12-26 10:30:00,
2013-12-26 04:35:00,44.6,36.5,29.75,North,0,0.0,0.0,73,0.00,,,0.00,WUHU216HW,2013-12-26 10:35:00,
2013-12-26 04:40:00,44.6,36.5,29.75,North,0,0.0,0.0,73,0.00,,,0.00,WUHU216HW,2013-12-26 10:40:00,
2013-12-26 04:46:00,44.5,36.0,29.75,North,0,0.0,0.0,72,0.00,,,0.00,WUHU216HW,2013-12-26 10:46:00,
2013-12-26 04:51:00,44.5,36.0,29.75,North,0,0.0,0.0,72,0.00,,,0.00,WUHU216HW,2013-12-26 10:51:00,
2013-12-26 04:56:00,44.5,36.0,29.75,North,0,0.0,0.0,72,0.00,,,0.00,WUHU216HW,2013-12-26 10:56:00,
2013-12-26 05:01:00,44.5,36.0,29.76,North,0,0.0,0.0,72,0.00,,,0.00,WUHU216HW,2013-12-26 11:01:00,
2013-12-26 05:06:00,44.3,35.8,29.76,North,0,0.0,0.0,72,0.00,,,0.00,WUHU216HW,2013-12-26 11:06:00,
2013-12-26 05:11:00,44.3,35.8,29.76,North,0,0.0,0.0,72,0.00,,,0.00,WUHU216HW,2013-12-26 11:11:00,
2013-12-26 05:16:00,44.3,36.2,29.76,North,0,0.0,0.0,73,0.00,,,0.00,WUHU216HW,2013-12-26 11:16:00,
2013-12-26 05:21:00,44.3,36.2,29.76,North,0,0.0,0.0,73,0.00,,,0.00,WUHU216HW,2013-12-26 11:21:00,
2013-12-26 05:26:00,44.3,36.2,29.76,North,0,0.0,0.0,73,0.00,,,0.00,WUHU216HW,2013-12-26 11:26:00,
2013-12-26 05:31:00,44.3,36.2,29.76,North,0,0.0,0.0,73,0.00,,,0.00,WUHU216HW,2013-12-26 11:31:00,
2013-12-26 05:36:00,44.1,36.0,29.76,North,0,0.0,0.0,73,0.00,,,0.00,WUHU216HW,2013-12-26 11:36:00,
2013-12-26 05:41:00,44.1,36.0,29.76,North,0,0.0,0.0,73,0.00,,,0.00,WUHU216HW,2013-12-26 11:41:00,
2013-12-26 05:46:00,44.1,36.0,29.76,North,0,0.0,0.0,73,0.00,,,0.00,WUHU216HW,2013-12-26 11:46:00,
2013-12-26 05:51:00,44.1,36.0,29.76,North,0,0.0,0.0,73,0.00,,,0.00,WUHU216HW,2013-12-26 11:51:00,
2013-12-26 05:56:00,43.9,35.8,29.76,North,0,0.0,0.0,73,0.00,,,0.00,WUHU216HW,2013-12-26 11:56:00,
2013-12-26 06:01:00,43.9,35.8,29.76,North,0,0.0,0.0,73,0.00,,,0.00,WUHU216HW,2013-12-26 12:01:00,
2013-12-26 06:06:00,43.9,35.8,29.76,North,0,0.0,0.0,73,0.00,,,0.00,WUHU216HW,2013-12-26 12:06:00,
2013-12-26 06:11:00,43.9,35.8,29.77,North,0,0.0,0.0,73,0.00,,,0.00,WUHU216HW,2013-12-26 12:11:00,
2013-12-26 06:16:00,43.7,35.3,29.77,North,0,0.0,0.0,72,0.00,,,0.00,WUHU216HW,2013-12-26 12:16:00,
2013-12-26 06:21:00,43.7,35.3,29.77,North,0,0.0,0.0,72,0.00,,,0.00,WUHU216HW,2013-12-26 12:21:00,
2013-12-26 06:26:00,43.7,35.3,29.77,North,0,0.0,0.0,72,0.00,,,0.00,WUHU216HW,2013-12-26 12:26:00,
2013-12-26 06:31:00,43.7,35.6,29.77,North,0,0.0,0.0,73,0.00,,,0.00,WUHU216HW,2013-12-26 12:31:00,
2013-12-26 06:37:00,43.7,35.6,29.77,North,0,0.0,0.0,73,0.00,,,0.00,WUHU216HW,2013-12-26 12:37:00,
2013-12-26 06:42:00,43.9,36.2,29.77,North,0,0.0,0.0,74,0.00,,,0.00,WUHU216HW,2013-12-26 12:42:00,
2013-12-26 06:47:00,43.9,36.2,29.76,North,0,0.0,0.0,74,0.00,,,0.00,WUHU216HW,2013-12-26 12:47:00,
2013-12-26 06:52:00,43.7,35.6,29.76,North,0,0.0,0.0,73,0.00,,,0.00,WUHU216HW,2013-12-26 12:52:00,
2013-12-26 06:57:00,43.7,35.6,29.76,North,0,0.0,0.0,73,0.00,,,0.00,WUHU216HW,2013-12-26 12:57:00,
2013-12-26 06:59:00,43.7,35.6,29.76,North,0,0.0,0.0,73,0.00,,,0.00,WUHU216HW,2013-12-26 12:59:00,
2013-12-26 07:04:00,43.7,35.6,29.76,North,0,0.0,0.0,73,0.00,,,0.00,WUHU216HW,2013-12-26 13:04:00,
2013-12-26 07:09:00,43.6,35.5,29.76,North,0,0.0,0.0,73,0.00,,,0.00,WUHU216HW,2013-12-26 13:09:00,
2013-12-26 07:14:00,43.6,35.5,29.76,North,0,0.0,0.0,73,0.00,,,0.00,WUHU216HW,2013-12-26 13:14:00,
2013-12-26 07:19:00,43.6,35.5,29.76,North,0,0.0,0.0,73,0.00,,,0.00,WUHU216HW,2013-12-26 13:19:00,
2013-12-26 07:24:00,43.4,35.3,29.76,North,0,0.0,0.0,73,0.00,,,0.00,WUHU216HW,2013-12-26 13:24:00,
2013-12-26 07:29:00,43.4,35.3,29.77,North,0,0.0,0.0,73,0.00,,,0.00,WUHU216HW,2013-12-26 13:29:00,
2013-12-26 07:34:00,43.4,35.6,29.77,North,0,0.0,0.0,74,0.00,,,0.00,WUHU216HW,2013-12-26 13:34:00,
2013-12-26 07:39:00,43.4,35.6,29.78,North,0,0.0,0.0,74,0.00,,,0.00,WUHU216HW,2013-12-26 13:39:00,
2013-12-26 07:44:00,43.6,35.8,29.78,North,0,0.0,0.0,74,0.00,,,0.00,WUHU216HW,2013-12-26 13:44:00,
2013-12-26 07:49:00,43.6,35.8,29.78,North,0,0.0,0.0,74,0.00,,,0.00,WUHU216HW,2013-12-26 13:49:00,
2013-12-26 07:54:00,43.6,35.8,29.78,North,0,0.0,0.0,74,0.00,,,0.00,WUHU216HW,2013-12-26 13:54:00,
2013-12-26 07:59:00,43.6,35.5,29.78,North,0,0.0,0.0,73,0.00,,,0.00,WUHU216HW,2013-12-26 13:59:00,
2013-12-26 08:04:00,43.7,35.6,29.78,North,0,0.0,0.0,73,0.00,,,0.00,WUHU216HW,2013-12-26 14:04:00,
2013-12-26 08:09:00,43.9,36.2,29.79,North,0,0.0,0.0,74,0.00,,,0.00,WUHU216HW,2013-12-26 14:09:00,
2013-12-26 08:14:00,43.9,36.2,29.79,North,0,0.0,0.0,74,0.00,,,0.00,WUHU216HW,2013-12-26 14:14:00,
2013-12-26 08:19:00,43.9,36.2,29.79,North,0,0.0,0.0,74,0.00,,,0.00,WUHU216HW,2013-12-26 14:19:00,
2013-12-26 08:24:00,44.1,36.4,29.79,North,0,0.0,0.0,74,0.00,,,0.00,WUHU216HW,2013-12-26 14:24:00,
2013-12-26 08:30:00,43.9,36.2,29.79,North,0,0.0,0.0,74,0.00,,,0.00,WUHU216HW,2013-12-26 14:30:00,
2013-12-26 08:35:00,43.9,35.8,29.80,North,0,0.0,0.0,73,0.00,,,0.00,WUHU216HW,2013-12-26 14:35:00,
2013-12-26 08:40:00,43.9,35.8,29.80,North,0,0.0,0.0,73,0.00,,,0.00,WUHU216HW,2013-12-26 14:40:00,
2013-12-26 08:45:00,43.9,35.8,29.80,North,0,0.0,0.0,73,0.00,,,0.00,WUHU216HW,2013-12-26 14:45:00,
2013-12-26 08:50:00,44.1,36.4,29.80,North,0,0.0,0.0,74,0.00,,,0.00,WUHU216HW,2013-12-26 14:50:00,
2013-12-26 08:55:00,44.1,36.4,29.80,North,0,0.0,0.0,74,0.00,,,0.00,WUHU216HW,2013-12-26 14:55:00,
2013-12-26 09:00:00,44.3,36.5,29.80,North,0,0.0,0.0,74,0.00,,,0.00,WUHU216HW,2013-12-26 15:00:00,
2013-12-26 09:05:00,44.3,36.5,29.81,North,0,0.0,0.0,74,0.00,,,0.00,WUHU216HW,2013-12-26 15:05:00,
2013-12-26 09:10:00,44.3,36.2,29.81,North,0,0.0,0.0,73,0.00,,,0.00,WUHU216HW,2013-12-26 15:10:00,
2013-12-26 09:15:00,44.3,36.2,29.81,North,0,0.0,0.0,73,0.00,,,0.00,WUHU216HW,2013-12-26 15:15:00,
2013-12-26 09:20:00,44.3,36.5,29.81,North,0,0.0,0.0,74,0.00,,,0.00,WUHU216HW,2013-12-26 15:20:00,
2013-12-26 09:25:00,44.3,36.2,29.82,North,0,0.0,0.0,73,0.00,,,0.00,WUHU216HW,2013-12-26 15:25:00,
2013-12-26 09:30:00,44.3,36.2,29.82,North,0,0.0,0.0,73,0.00,,,0.00,WUHU216HW,2013-12-26 15:30:00,
2013-12-26 09:35:00,44.3,36.2,29.82,North,0,0.0,0.0,73,0.00,,,0.00,WUHU216HW,2013-12-26 15:35:00,
2013-12-26 09:40:00,44.5,36.4,29.82,North,0,0.0,0.0,73,0.00,,,0.00,WUHU216HW,2013-12-26 15:40:00,
2013-12-26 09:45:00,44.8,36.6,29.82,North,0,0.0,0.0,73,0.00,,,0.00,WUHU216HW,2013-12-26 15:45:00,
2013-12-26 09:50:00,44.8,36.4,29.83,North,0,0.0,0.0,72,0.00,,,0.00,WUHU216HW,2013-12-26 15:50:00,
2013-12-26 09:55:00,44.8,36.4,29.83,North,0,0.0,0.0,72,0.00,,,0.00,WUHU216HW,2013-12-26 15:55:00,
2013-12-26 10:00:00,44.8,36.4,29.83,North,0,0.0,0.0,72,0.00,,,0.00,WUHU216HW,2013-12-26 16:00:00,
2013-12-26 10:05:00,45.0,36.6,29.83,North,0,0.0,0.0,72,0.00,,,0.00,WUHU216HW,2013-12-26 16:05:00,
2013-12-26 10:10:00,45.0,36.6,29.82,North,0,0.0,0.0,72,0.00,,,0.00,WUHU216HW,2013-12-26 16:10:00,
2013-12-26 10:16:00,45.2,36.7,29.82,North,0,0.0,0.0,72,0.00,,,0.00,WUHU216HW,2013-12-26 16:16:00,
2013-12-26 10:21:00,45.5,37.1,29.82,North,0,0.0,0.0,72,0.00,,,0.00,WUHU216HW,2013-12-26 16:21:00,
2013-12-26 10:26:00,45.5,37.1,29.82,North,0,0.0,0.0,72,0.00,,,0.00,WUHU216HW,2013-12-26 16:26:00,
2013-12-26 10:31:00,45.5,37.1,29.82,North,0,0.0,0.0,72,0.00,,,0.00,WUHU216HW,2013-12-26 16:31:00,
2013-12-26 10:36:00,45.7,37.3,29.82,North,0,0.0,0.0,72,0.00,,,0.00,WUHU216HW,2013-12-26 16:36:00,
2013-12-26 10:41:00,45.7,37.3,29.82,North,0,0.0,0.0,72,0.00,,,0.00,WUHU216HW,2013-12-26 16:41:00,
2013-12-26 10:46:00,46.1,37.3,29.82,North,0,0.0,0.0,71,0.00,,,0.00,WUHU216HW,2013-12-26 16:46:00,
2013-12-26 10:51:00,46.1,37.3,29.81,North,0,0.0,0.0,71,0.00,,,0.00,WUHU216HW,2013-12-26 16:51:00,
2013-12-26 10:56:00,46.1,37.3,29.81,North,0,0.0,0.0,71,0.00,,,0.00,WUHU216HW,2013-12-26 16:56:00,
2013-12-26 11:01:00,46.3,37.5,29.81,North,0,0.0,0.0,71,0.00,,,0.00,WUHU216HW,2013-12-26 17:01:00,
2013-12-26 11:06:00,46.4,37.6,29.81,North,0,0.0,0.0,71,0.00,,,0.00,WUHU216HW,2013-12-26 17:06:00,
2013-12-26 11:11:00,46.6,37.8,29.81,North,0,0.0,0.0,71,0.00,,,0.00,WUHU216HW,2013-12-26 17:11:00,
2013-12-26 11:16:00,46.4,37.3,29.81,North,0,0.0,0.0,70,0.00,,,0.00,WUHU216HW,2013-12-26 17:16:00,
2013-12-26 11:21:00,46.4,37.3,29.81,North,0,0.0,0.0,70,0.00,,,0.00,WUHU216HW,2013-12-26 17:21:00,
2013-12-26 11:26:00,46.4,37.3,29.81,North,0,0.0,0.0,70,0.00,,,0.00,WUHU216HW,2013-12-26 17:26:00,
2013-12-26 11:31:00,46.8,37.6,29.80,North,0,0.0,0.0,70,0.00,,,0.00,WUHU216HW,2013-12-26 17:31:00,
2013-12-26 11:36:00,47.2,37.9,29.80,North,0,0.0,0.0,70,0.00,,,0.00,WUHU216HW,2013-12-26 17:36:00,
2013-12-26 11:41:00,47.3,37.7,29.79,North,0,0.0,0.0,69,0.00,,,0.00,WUHU216HW,2013-12-26 17:41:00,
2013-12-26 11:46:00,47.5,38.3,29.79,North,0,0.0,0.0,70,0.00,,,0.00,WUHU216HW,2013-12-26 17:46:00,
2013-12-26 11:52:00,47.9,38.5,29.79,North,0,0.0,0.0,70,0.00,,,0.00,WUHU216HW,2013-12-26 17:52:00,
2013-12-26 11:57:00,48.2,38.5,29.79,North,0,0.0,0.0,69,0.00,,,0.00,WUHU216HW,2013-12-26 17:57:00,
2013-12-26 12:02:00,48.6,38.9,29.79,North,0,0.0,0.0,69,0.00,,,0.00,WUHU216HW,2013-12-26 18:02:00,
2013-12-26 12:07:00,48.8,38.6,29.79,North,0,0.0,0.0,68,0.00,,,0.00,WUHU216HW,2013-12-26 18:07:00,
2013-12-26 12:12:00,48.8,38.6,29.78,North,0,0.0,0.0,68,0.00,,,0.00,WUHU216HW,2013-12-26 18:12:00,
2013-12-26 12:17:00,49.1,39.0,29.78,North,0,0.0,0.0,68,0.00,,,0.00,WUHU216HW,2013-12-26 18:17:00,
2013-12-26 12:22:00,49.5,39.0,29.78,North,0,0.0,0.0,67,0.00,,,0.00,WUHU216HW,2013-12-26 18:22:00,
2013-12-26 12:27:00,49.7,39.2,29.78,North,0,0.0,0.0,67,0.00,,,0.00,WUHU216HW,2013-12-26 18:27:00,
2013-12-26 12:32:00,49.7,39.2,29.77,North,0,0.0,0.0,67,0.00,,,0.00,WUHU216HW,2013-12-26 18:32:00,
2013-12-26 12:37:00,50.0,39.5,29.76,North,0,0.0,0.0,67,0.00,,,0.00,WUHU216HW,2013-12-26 18:37:00,
2013-12-26 12:42:00,50.2,40.1,29.76,North,0,0.0,0.0,68,0.00,,,0.00,WUHU216HW,2013-12-26 18:42:00,
2013-12-26 12:47:00,50.8,40.6,29.76,North,0,0.0,0.0,68,0.00,,,0.00,WUHU216HW,2013-12-26 18:47:00,
2013-12-26 12:52:00,51.1,40.5,29.76,North,0,0.0,0.0,67,0.00,,,0.00,WUHU216HW,2013-12-26 18:52:00,
2013-12-26 12:57:00,51.1,41.0,29.76,North,0,0.0,0.0,68,0.00,,,0.00,WUHU216HW,2013-12-26 18:57:00,
2013-12-26 13:02:00,51.3,41.1,29.75,North,0,0.0,0.0,68,0.00,,,0.00,WUHU216HW,2013-12-26 19:02:00,
2013-12-26 13:07:00,51.7,41.5,29.75,North,0,0.0,0.0,68,0.00,,,0.00,WUHU216HW,2013-12-26 19:07:00,
2013-12-26 13:12:00,51.8,41.2,29.75,North,0,0.0,0.0,67,0.00,,,0.00,WUHU216HW,2013-12-26 19:12:00,
2013-12-26 13:18:00,51.8,41.7,29.76,North,0,0.0,0.0,68,0.00,,,0.00,WUHU216HW,2013-12-26 19:18:00,
2013-12-26 13:23:00,52.0,41.9,29.75,North,0,0.0,0.0,68,0.00,,,0.00,WUHU216HW,2013-12-26 19:23:00,
2013-12-26 13:28:00,52.2,41.9,29.75,North,0,0.0,0.0,68,0.00,,,0.00,WUHU216HW,2013-12-26 19:28:00,
2013-12-26 13:33:00,52.2,41.9,29.75,North,0,0.0,0.0,68,0.00,,,0.00,WUHU216HW,2013-12-26 19:33:00,
2013-12-26 13:38:00,52.4,41.8,29.74,North,0,0.0,0.0,67,0.00,,,0.00,WUHU216HW,2013-12-26 19:38:00,
2013-12-26 13:43:00,52.2,41.6,29.74,North,0,0.0,0.0,67,0.00,,,0.00,WUHU216HW,2013-12-26 19:43:00,
2013-12-26 13:48:00,52.2,41.6,29.74,North,0,0.0,0.0,67,0.00,,,0.00,WUHU216HW,2013-12-26 19:48:00,
2013-12-26 13:53:00,52.2,41.6,29.74,North,0,0.0,0.0,67,0.00,,,0.00,WUHU216HW,2013-12-26 19:53:00,
2013-12-26 13:58:00,52.2,41.9,29.73,North,0,0.0,0.0,68,0.00,,,0.00,WUHU216HW,2013-12-26 19:58:00,
2013-12-26 14:03:00,52.2,41.6,29.73,North,0,0.0,0.0,67,0.00,,,0.00,WUHU216HW,2013-12-26 20:03:00,
2013-12-26 14:08:00,52.2,41.9,29.73,North,0,0.0,0.0,68,0.00,,,0.00,WUHU216HW,2013-12-26 20:08:00,
2013-12-26 14:13:00,52.2,41.9,29.73,North,0,0.0,0.0,68,0.00,,,0.00,WUHU216HW,2013-12-26 20:13:00,
2013-12-26 14:18:00,52.2,41.9,29.73,North,0,0.0,0.0,68,0.00,,,0.00,WUHU216HW,2013-12-26 20:18:00,
2013-12-26 14:23:00,52.4,42.1,29.73,North,0,0.0,0.0,68,0.00,,,0.00,WUHU216HW,2013-12-26 20:23:00,
2013-12-26 14:28:00,52.6,42.3,29.73,North,0,0.0,0.0,68,0.00,,,0.00,WUHU216HW,2013-12-26 20:28:00,
2013-12-26 14:33:00,52.6,42.3,29.73,North,0,0.0,0.0,68,0.00,,,0.00,WUHU216HW,2013-12-26 20:33:00,
2013-12-26 14:38:00,52.6,42.3,29.73,North,0,0.0,0.0,68,0.00,,,0.00,WUHU216HW,2013-12-26 20:38:00,
2013-12-26 14:43:00,52.6,42.8,29.73,North,0,0.0,0.0,69,0.00,,,0.00,WUHU216HW,2013-12-26 20:43:00,
2013-12-26 14:48:00,52.6,42.8,29.73,North,0,0.0,0.0,69,0.00,,,0.00,WUHU216HW,2013-12-26 20:48:00,
2013-12-26 14:54:00,52.4,42.6,29.73,North,0,0.0,0.0,69,0.00,,,0.00,WUHU216HW,2013-12-26 20:54:00,
2013-12-26 14:59:00,52.4,42.6,29.73,North,0,0.0,0.0,69,0.00,,,0.00,WUHU216HW,2013-12-26 20:59:00,
2013-12-26 15:04:00,52.2,42.4,29.73,North,0,0.0,0.0,69,0.00,,,0.00,WUHU216HW,2013-12-26 21:04:00,
2013-12-26 15:09:00,52.2,42.4,29.73,North,0,0.0,0.0,69,0.00,,,0.00,WUHU216HW,2013-12-26 21:09:00,
2013-12-26 15:14:00,52.2,42.4,29.73,North,0,0.0,0.0,69,0.00,,,0.00,WUHU216HW,2013-12-26 21:14:00,
2013-12-26 15:19:00,52.2,42.4,29.72,North,0,0.0,0.0,69,0.00,,,0.00,WUHU216HW,2013-12-26 21:19:00,
2013-12-26 15:24:00,52.2,42.4,29.72,North,0,0.0,0.0,69,0.00,,,0.00,WUHU216HW,2013-12-26 21:24:00,
2013-12-26 15:29:00,52.2,42.4,29.72,North,0,0.0,0.0,69,0.00,,,0.00,WUHU216HW,2013-12-26 21:29:00,
2013-12-26 15:34:00,52.2,42.4,29.73,North,0,0.0,0.0,69,0.00,,,0.00,WUHU216HW,2013-12-26 21:34:00,
2013-12-26 15:39:00,52.2,42.4,29.73,North,0,0.0,0.0,69,0.00,,,0.00,WUHU216HW,2013-12-26 21:39:00,
2013-12-26 15:44:00,52.2,42.4,29.72,North,0,0.0,0.0,69,0.00,,,0.00,WUHU216HW,2013-12-26 21:44:00,
2013-12-26 15:49:00,52.2,42.4,29.72,North,0,0.0,0.0,69,0.00,,,0.00,WUHU216HW,2013-12-26 21:49:00,
2013-12-26 15:54:00,52.4,42.6,29.72,North,0,0.0,0.0,69,0.00,,,0.00,WUHU216HW,2013-12-26 21:54:00,
2013-12-26 15:59:00,52.6,42.8,29.72,North,0,0.0,0.0,69,0.00,,,0.00,WUHU216HW,2013-12-26 21:59:00,
2013-12-26 16:04:00,52.6,42.8,29.72,North,0,0.0,0.0,69,0.00,,,0.00,WUHU216HW,2013-12-26 22:04:00,
2013-12-26 16:09:00,52.4,42.6,29.72,North,0,0.0,0.0,69,0.00,,,0.00,WUHU216HW,2013-12-26 22:09:00,
2013-12-26 16:14:00,52.4,42.6,29.72,North,0,0.0,0.0,69,0.00,,,0.00,WUHU216HW,2013-12-26 22:14:00,
2013-12-26 16:19:00,52.2,42.4,29.72,North,0,0.0,0.0,69,0.00,,,0.00,WUHU216HW,2013-12-26 22:19:00,
2013-12-26 16:24:00,52.2,42.4,29.72,North,0,0.0,0.0,69,0.00,,,0.00,WUHU216HW,2013-12-26 22:24:00,
2013-12-26 16:30:00,52.2,42.4,29.72,North,0,0.0,0.0,69,0.00,,,0.00,WUHU216HW,2013-12-26 22:30:00,
2013-12-26 16:35:00,52.2,42.4,29.73,North,0,0.0,0.0,69,0.00,,,0.00,WUHU216HW,2013-12-26 22:35:00,
2013-12-26 16:40:00,52.0,42.2,29.73,North,0,0.0,0.0,69,0.00,,,0.00,WUHU216HW,2013-12-26 22:40:00,
2013-12-26 16:45:00,51.8,42.0,29.73,North,0,0.0,0.0,69,0.00,,,0.00,WUHU216HW,2013-12-26 22:45:00,
2013-12-26 16:50:00,51.7,41.9,29.73,North,0,0.0,0.0,69,0.00,,,0.00,WUHU216HW,2013-12-26 22:50:00,
2013-12-26 16:55:00,51.7,41.9,29.74,North,0,0.0,0.0,69,0.00,,,0.00,WUHU216HW,2013-12-26 22:55:00,
2013-12-26 17:00:00,51.7,42.3,29.74,North,0,0.0,0.0,70,0.00,,,0.00,WUHU216HW,2013-12-26 23:00:00,
2013-12-26 17:05:00,51.7,42.3,29.74,North,0,0.0,0.0,70,0.00,,,0.00,WUHU216HW,2013-12-26 23:05:00,
2013-12-26 17:10:00,51.5,42.1,29.73,North,0,0.0,0.0,70,0.00,,,0.00,WUHU216HW,2013-12-26 23:10:00,
2013-12-26 17:15:00,51.5,42.1,29.73,North,0,0.0,0.0,70,0.00,,,0.00,WUHU216HW,2013-12-26 23:15:00,
2013-12-26 17:20:00,51.5,42.1,29.73,North,0,0.0,0.0,70,0.00,,,0.00,WUHU216HW,2013-12-26 23:20:00,
2013-12-26 17:25:00,51.3,41.9,29.74,North,0,0.0,0.0,70,0.00,,,0.00,WUHU216HW,2013-12-26 23:25:00,
2013-12-26 17:30:00,51.3,42.3,29.74,North,0,0.0,0.0,71,0.00,,,0.00,WUHU216HW,2013-12-26 23:30:00,
2013-12-26 17:35:00,51.1,42.1,29.75,North,0,0.0,0.0,71,0.00,,,0.00,WUHU216HW,2013-12-26 23:35:00,
2013-12-26 17:36:00,51.1,42.1,29.75,North,0,0.0,0.0,71,0.00,,,0.00,WUHU216HW,2013-12-26 23:36:00,
2013-12-26 17:41:00,51.1,42.1,29.74,North,0,0.0,0.0,71,0.00,,,0.00,WUHU216HW,2013-12-26 23:41:00,
2013-12-26 17:42:00,50.9,42.0,29.74,North,0,0.0,0.0,71,0.00,,,0.00,WUHU216HW,2013-12-26 23:42:00,
2013-12-26 17:47:00,50.9,42.3,29.75,North,0,0.0,0.0,72,0.00,,,0.00,WUHU216HW,2013-12-26 23:47:00,
2013-12-26 17:49:00,50.8,42.1,29.74,North,0,0.0,0.0,72,0.00,,,0.00,WUHU216HW,2013-12-26 23:49:00,
2013-12-26 17:54:00,50.8,42.1,29.74,North,0,0.0,0.0,72,0.00,,,0.00,WUHU216HW,2013-12-26 23:54:00,
2013-12-26 18:00:00,50.8,42.4,29.74,North,0,0.0,0.0,73,0.00,,,0.00,WUHU216HW,2013-12-27 00:00:00,
2013-12-26 18:05:00,50.6,42.2,29.74,North,0,0.0,0.0,73,0.00,,,0.00,WUHU216HW,2013-12-27 00:05:00,
2013-12-26 18:10:00,50.4,42.4,29.74,North,0,0.0,0.0,74,0.00,,,0.00,WUHU216HW,2013-12-27 00:10:00,
2013-12-26 18:15:00,50.2,42.6,29.75,North,0,0.0,0.0,75,0.00,,,0.00,WUHU216HW,2013-12-27 00:15:00,
2013-12-26 18:20:00,50.0,42.4,29.74,North,0,0.0,0.0,75,0.00,,,0.00,WUHU216HW,2013-12-27 00:20:00,
2013-12-26 18:25:00,50.0,42.4,29.74,North,0,0.0,0.0,75,0.00,,,0.00,WUHU216HW,2013-12-27 00:25:00,
2013-12-26 18:30:00,49.9,42.6,29.75,North,0,0.0,0.0,76,0.00,,,0.00,WUHU216HW,2013-12-27 00:30:00,
2013-12-26 18:35:00,49.7,42.4,29.75,North,0,0.0,0.0,76,0.00,,,0.00,WUHU216HW,2013-12-27 00:35:00,
2013-12-26 18:40:00,49.5,42.6,29.75,North,0,0.0,0.0,77,0.00,,,0.00,WUHU216HW,2013-12-27 00:40:00,
2013-12-26 18:45:00,49.5,42.6,29.75,North,0,0.0,0.0,77,0.00,,,0.00,WUHU216HW,2013-12-27 00:45:00,
2013-12-26 18:50:00,49.3,42.4,29.75,North,0,0.0,0.0,77,0.00,,,0.00,WUHU216HW,2013-12-27 00:50:00,
2013-12-26 18:55:00,49.3,42.7,29.76,North,0,0.0,0.0,78,0.00,,,0.00,WUHU216HW,2013-12-27 00:55:00,
2013-12-26 19:00:00,49.3,42.7,29.76,North,0,0.0,0.0,78,0.00,,,0.00,WUHU216HW,2013-12-27 01:00:00,
2013-12-26 19:05:00,49.1,42.5,29.76,North,0,0.0,0.0,78,0.00,,,0.00,WUHU216HW,2013-12-27 01:05:00,
2013-12-26 19:10:00,49.1,42.5,29.76,North,0,0.0,0.0,78,0.00,,,0.00,WUHU216HW,2013-12-27 01:10:00,
2013-12-26 19:15:00,49.1,42.5,29.76,North,0,0.0,0.0,78,0.00,,,0.00,WUHU216HW,2013-12-27 01:15:00,
2013-12-26 19:20:00,49.1,42.8,29.76,North,0,0.0,0.0,79,0.00,,,0.00,WUHU216HW,2013-12-27 01:20:00,
2013-12-26 19:25:00,49.1,42.8,29.76,North,0,0.0,0.0,79,0.00,,,0.00,WUHU216HW,2013-12-27 01:25:00,
2013-12-26 19:30:00,49.0,42.7,29.76,North,0,0.0,0.0,79,0.00,,,0.00,WUHU216HW,2013-12-27 01:30:00,
2013-12-26 19:36:00,49.0,42.7,29.76,North,0,0.0,0.0,79,0.00,,,0.00,WUHU216HW,2013-12-27 01:36:00,
2013-12-26 19:41:00,49.0,43.0,29.77,North,0,0.0,0.0,80,0.00,,,0.00,WUHU216HW,2013-12-27 01:41:00,
2013-12-26 19:46:00,49.0,43.0,29.77,North,0,0.0,0.0,80,0.00,,,0.00,WUHU216HW,2013-12-27 01:46:00,
2013-12-26 19:51:00,49.0,43.0,29.77,North,0,0.0,0.0,80,0.00,,,0.00,WUHU216HW,2013-12-27 01:51:00,
2013-12-26 19:56:00,49.0,43.0,29.77,North,0,0.0,0.0,80,0.00,,,0.00,WUHU216HW,2013-12-27 01:56:00,
2013-12-26 20:01:00,49.0,43.0,29.77,North,0,0.0,0.0,80,0.00,,,0.00,WUHU216HW,2013-12-27 02:01:00,
2013-12-26 20:06:00,49.0,43.0,29.76,North,0,0.0,0.0,80,0.00,,,0.00,WUHU216HW,2013-12-27 02:06:00,
2013-12-26 20:11:00,49.0,43.0,29.77,North,0,0.0,0.0,80,0.00,,,0.00,WUHU216HW,2013-12-27 02:11:00,
2013-12-26 20:16:00,48.8,42.8,29.77,North,0,0.0,0.0,80,0.00,,,0.00,WUHU216HW,2013-12-27 02:16:00,
2013-12-26 20:21:00,48.8,43.2,29.77,North,0,0.0,0.0,81,0.00,,,0.00,WUHU216HW,2013-12-27 02:21:00,
2013-12-26 20:26:00,48.8,43.2,29.77,North,0,0.0,0.0,81,0.00,,,0.00,WUHU216HW,2013-12-27 02:26:00,
2013-12-26 20:31:00,48.8,43.2,29.77,North,0,0.0,0.0,81,0.00,,,0.00,WUHU216HW,2013-12-27 02:31:00,
2013-12-26 20:36:00,48.8,43.2,29.77,North,0,0.0,0.0,81,0.00,,,0.00,WUHU216HW,2013-12-27 02:36:00,
2013-12-26 20:41:00,48.8,43.2,29.77,North,0,0.0,0.0,81,0.00,,,0.00,WUHU216HW,2013-12-27 02:41:00,
2013-12-26 20:46:00,49.0,43.7,29.76,North,0,0.0,0.0,82,0.00,,,0.00,WUHU216HW,2013-12-27 02:46:00,
2013-12-26 20:51:00,49.0,43.7,29.77,North,0,0.0,0.0,82,0.00,,,0.00,WUHU216HW,2013-12-27 02:51:00,
2013-12-26 20:56:00,48.8,43.5,29.77,North,0,0.0,0.0,82,0.00,,,0.00,WUHU216HW,2013-12-27 02:56:00,
2013-12-26 21:01:00,49.0,43.7,29.77,North,0,0.0,0.0,82,0.00,,,0.00,WUHU216HW,2013-12-27 03:01:00,
2013-12-26 21:06:00,49.0,43.7,29.77,North,0,0.0,0.0,82,0.00,,,0.00,WUHU216HW,2013-12-27 03:06:00,
2013-12-26 21:12:00,48.8,43.5,29.77,North,0,0.0,0.0,82,0.00,,,0.00,WUHU216HW,2013-12-27 03:12:00,
2013-12-26 21:17:00,48.8,43.5,29.77,North,0,0.0,0.0,82,0.00,,,0.00,WUHU216HW,2013-12-27 03:17:00,
2013-12-26 21:22:00,48.8,43.5,29.77,North,0,0.0,0.0,82,0.00,,,0.00,WUHU216HW,2013-12-27 03:22:00,
2013-12-26 21:27:00,48.8,43.5,29.77,North,0,0.0,0.0,82,0.00,,,0.00,WUHU216HW,2013-12-27 03:27:00,
2013-12-26 21:32:00,48.8,43.5,29.77,North,0,0.0,0.0,82,0.00,,,0.00,WUHU216HW,2013-12-27 03:32:00,
2013-12-26 21:37:00,48.8,43.5,29.77,North,0,0.0,0.0,82,0.00,,,0.00,WUHU216HW,2013-12-27 03:37:00,
2013-12-26 21:42:00,48.6,43.3,29.77,North,0,0.0,0.0,82,0.00,,,0.00,WUHU216HW,2013-12-27 03:42:00,
2013-12-26 21:47:00,48.8,43.5,29.76,North,0,0.0,0.0,82,0.00,,,0.00,WUHU216HW,2013-12-27 03:47:00,
2013-12-26 21:52:00,48.6,43.3,29.77,North,0,0.0,0.0,82,0.00,,,0.00,WUHU216HW,2013-12-27 03:52:00,
2013-12-26 21:57:00,48.6,43.3,29.76,North,0,0.0,0.0,82,0.00,,,0.00,WUHU216HW,2013-12-27 03:57:00,
2013-12-26 22:02:00,48.6,43.3,29.76,North,0,0.0,0.0,82,0.00,,,0.00,WUHU216HW,2013-12-27 04:02:00,
2013-12-26 22:07:00,48.6,43.3,29.77,North,0,0.0,0.0,82,0.00,,,0.00,WUHU216HW,2013-12-27 04:07:00,
2013-12-26 22:12:00,48.6,43.7,29.78,North,0,0.0,0.0,83,0.00,,,0.00,WUHU216HW,2013-12-27 04:12:00,
2013-12-26 22:17:00,48.6,43.7,29.77,North,0,0.0,0.0,83,0.00,,,0.00,WUHU216HW,2013-12-27 04:17:00,
2013-12-26 22:22:00,48.6,43.7,29.78,North,0,0.0,0.0,83,0.00,,,0.00,WUHU216HW,2013-12-27 04:22:00,
2013-12-26 22:27:00,48.6,43.7,29.77,North,0,0.0,0.0,83,0.00,,,0.00,WUHU216HW,2013-12-27 04:27:00,
2013-12-26 22:32:00,48.6,43.7,29.77,North,0,0.0,0.0,83,0.00,,,0.00,WUHU216HW,2013-12-27 04:32:00,
2013-12-26 22:37:00,48.6,43.7,29.78,North,0,0.0,0.0,83,0.00,,,0.00,WUHU216HW,2013-12-27 04:37:00,
2013-12-26 22:43:00,48.6,43.7,29.77,North,0,0.0,0.0,83,0.00,,,0.00,WUHU216HW,2013-12-27 04:43:00,
2013-12-26 22:48:00,48.6,43.7,29.78,North,0,0.0,0.0,83,0.00,,,0.00,WUHU216HW,2013-12-27 04:48:00,
2013-12-26 22:53:00,48.6,43.7,29.77,North,0,0.0,0.0,83,0.00,,,0.00,WUHU216HW,2013-12-27 04:53:00,
2013-12-26 22:58:00,48.6,43.7,29.77,North,0,0.0,0.0,83,0.00,,,0.00,WUHU216HW,2013-12-27 04:58:00,
2013-12-26 23:01:00,48.6,43.7,29.77,North,0,0.0,0.0,83,0.00,,,0.00,WUHU216HW,2013-12-27 05:01:00,
2013-12-26 23:02:00,48.6,43.7,29.78,North,0,0.0,0.0,83,0.00,,,0.00,WUHU216HW,2013-12-27 05:02:00,
2013-12-26 23:07:00,48.4,43.5,29.77,North,0,0.0,0.0,83,0.00,,,0.00,WUHU216HW,2013-12-27 05:07:00,
2013-12-26 23:12:00,48.2,43.3,29.77,North,0,0.0,0.0,83,0.00,,,0.00,WUHU216HW,2013-12-27 05:12:00,
2013-12-26 23:17:00,48.2,43.3,29.77,North,0,0.0,0.0,83,0.00,,,0.00,WUHU216HW,2013-12-27 05:17:00,
2013-12-26 23:22:00,48.2,43.3,29.77,North,0,0.0,0.0,83,0.00,,,0.00,WUHU216HW,2013-12-27 05:22:00,
2013-12-26 23:27:00,48.2,43.3,29.77,North,0,0.0,0.0,83,0.00,,,0.00,WUHU216HW,2013-12-27 05:27:00,
2013-12-26 23:32:00,48.2,43.3,29.77,North,0,0.0,0.0,83,0.00,,,0.00,WUHU216HW,2013-12-27 05:32:00,
2013-12-26 23:37:00,48.2,43.3,29.77,North,0,0.0,0.0,83,0.00,,,0.00,WUHU216HW,2013-12-27 05:37:00,
2013-12-26 23:42:00,48.4,43.5,29.77,North,0,0.0,0.0,83,0.00,,,0.00,WUHU216HW,2013-12-27 05:42:00,
2013-12-26 23:47:00,48.4,43.5,29.77,North,0,0.0,0.0,83,0.00,,,0.00,WUHU216HW,2013-12-27 05:47:00,
2013-12-26 23:52:00,48.4,43.5,29.77,North,0,0.0,0.0,83,0.00,,,0.00,WUHU216HW,2013-12-27 05:52:00,
2013-12-26 23:57:00,48.4,43.5,29.76,North,0,0.0,0.0,83,0.00,,,0.00,WUHU216HW,2013-12-27 05:57:00,